createdAt,value
2018-07-03T00:00:39.569Z,101425.01
2018-07-03T00:03:08.253Z,101428.92
2018-07-03T00:05:36.729Z,101431.95
2018-07-03T00:08:05.166Z,101426.74
2018-07-03T00:10:33.729Z,101430.80
2018-07-03T00:13:02.156Z,101427.41
2018-07-03T00:15:30.826Z,101430.13
2018-07-03T00:17:59.419Z,101429.66
2018-07-03T00:20:27.953Z,101434.50
2018-07-03T00:23:03.421Z,101435.14
2018-07-03T00:25:31.984Z,101424.98
2018-07-03T00:28:00.784Z,101422.95
2018-07-03T00:30:29.483Z,101420.32
2018-07-03T00:32:57.961Z,101420.52
2018-07-03T00:35:26.499Z,101417.33
2018-07-03T00:37:55.068Z,101420.92
2018-07-03T00:40:23.532Z,101415.78
2018-07-03T00:42:52.295Z,101420.47
2018-07-03T00:45:20.697Z,101415.53
2018-07-03T00:47:49.189Z,101420.13
2018-07-03T00:50:17.663Z,101424.08
2018-07-03T00:52:46.231Z,101415.58
2018-07-03T00:55:14.860Z,101420.24
2018-07-03T00:57:43.279Z,101420.47
2018-07-03T01:00:31.459Z,101424.30
2018-07-03T01:03:00.616Z,101421.48
2018-07-03T01:05:29.252Z,101422.45
2018-07-03T01:07:58.158Z,101419.37
2018-07-03T01:10:27.018Z,101419.70
2018-07-03T01:12:56.228Z,101423.03
2018-07-03T01:15:25.913Z,101426.90
2018-07-03T01:17:54.512Z,101421.20
2018-07-03T01:20:22.928Z,101416.67
2018-07-03T01:22:51.781Z,101424.33
2018-07-03T01:25:20.368Z,101419.95
2018-07-03T01:27:48.976Z,101421.95
2018-07-03T01:30:17.231Z,101424.17
2018-07-03T01:32:45.887Z,101422.64
2018-07-03T01:35:14.323Z,101433.05
2018-07-03T01:37:42.743Z,101427.91
2018-07-03T01:40:11.525Z,101428.05
2018-07-03T01:42:40.132Z,101438.09
2018-07-03T01:45:08.805Z,101433.30
2018-07-03T01:47:37.414Z,101435.22
2018-07-03T01:50:06.410Z,101434.05
2018-07-03T01:52:34.974Z,101429.52
2018-07-03T01:55:03.499Z,101437.67
2018-07-03T01:57:31.769Z,101438.14
2018-07-03T02:00:00.360Z,101438.42
2018-07-03T02:02:28.758Z,101442.14
2018-07-03T02:04:57.181Z,101426.41
2018-07-03T02:07:25.748Z,101431.52
2018-07-03T02:09:54.248Z,101428.22
2018-07-03T02:12:22.916Z,101431.88
2018-07-03T02:14:51.384Z,101427.41
2018-07-03T02:17:20.043Z,101429.02
2018-07-03T02:19:48.665Z,101427.20
2018-07-03T02:22:17.086Z,101428.55
2018-07-03T02:24:45.411Z,101424.41
2018-07-03T02:27:14.065Z,101421.80
2018-07-03T02:29:42.862Z,101422.98
2018-07-03T02:32:11.313Z,101427.42
2018-07-03T02:34:39.937Z,101425.59
2018-07-03T02:37:08.462Z,101418.78
2018-07-03T02:39:37.158Z,101421.86
2018-07-03T02:42:05.985Z,101419.81
2018-07-03T02:44:34.477Z,101417.59
2018-07-03T02:47:02.905Z,101422.03
2018-07-03T02:49:31.392Z,101412.20
2018-07-03T02:52:00.005Z,101411.73
2018-07-03T02:54:28.604Z,101409.64
2018-07-03T02:56:57.156Z,101418.56
2018-07-03T02:59:25.597Z,101409.70
2018-07-03T03:01:54.236Z,101407.04
2018-07-03T03:04:22.702Z,101408.61
2018-07-03T03:06:51.107Z,101411.89
2018-07-03T03:09:19.616Z,101410.92
2018-07-03T03:11:48.340Z,101408.88
2018-07-03T03:14:16.974Z,101409.51
2018-07-03T03:16:45.328Z,101407.09
2018-07-03T03:19:13.824Z,101412.02
2018-07-03T03:21:42.388Z,101406.13
2018-07-03T03:24:11.168Z,101412.16
2018-07-03T03:26:39.770Z,101406.06
2018-07-03T03:29:08.136Z,101409.46
2018-07-03T03:31:36.854Z,101409.86
2018-07-03T03:34:05.811Z,101410.33
2018-07-03T03:36:34.222Z,101399.97
2018-07-03T03:39:03.899Z,101401.31
2018-07-03T03:41:32.378Z,101407.24
2018-07-03T03:44:00.812Z,101406.18
2018-07-03T03:46:29.550Z,101403.11
2018-07-03T03:48:57.933Z,101406.02
2018-07-03T03:51:26.570Z,101414.42
2018-07-03T03:53:55.019Z,101409.97
2018-07-03T03:56:23.320Z,101409.72
2018-07-03T03:58:52.063Z,101415.55
2018-07-03T04:01:20.606Z,101416.66
2018-07-03T04:03:48.971Z,101414.97
2018-07-03T04:06:17.373Z,101414.55
2018-07-03T04:08:45.982Z,101416.92
2018-07-03T04:11:14.823Z,101420.88
2018-07-03T04:13:43.402Z,101427.77
2018-07-03T04:16:11.648Z,101424.60
2018-07-03T04:18:40.156Z,101430.95
2018-07-03T04:21:08.543Z,101422.52
2018-07-03T04:23:37.718Z,101425.80
2018-07-03T04:26:06.632Z,101433.84
2018-07-03T04:28:34.869Z,101429.70
2018-07-03T04:31:03.662Z,101429.16
2018-07-03T04:33:32.220Z,101434.23
2018-07-03T04:36:00.876Z,101434.73
2018-07-03T04:38:29.373Z,101434.17
2018-07-03T04:40:58.011Z,101432.12
2018-07-03T04:43:26.584Z,101432.44
2018-07-03T04:45:55.289Z,101437.81
2018-07-03T04:48:23.919Z,101430.04
2018-07-03T04:50:52.322Z,101434.23
2018-07-03T04:53:20.821Z,101441.89
2018-07-03T04:55:49.309Z,101440.89
2018-07-03T04:58:17.704Z,101436.33
2018-07-03T05:00:46.264Z,101441.77
2018-07-03T05:03:14.958Z,101436.70
2018-07-03T05:05:43.416Z,101439.94
2018-07-03T05:08:11.849Z,101440.41
2018-07-03T05:10:40.473Z,101443.64
2018-07-03T05:13:09.103Z,101452.92
2018-07-03T05:15:37.655Z,101458.59
2018-07-03T05:18:06.161Z,101451.86
2018-07-03T05:20:34.835Z,101458.80
2018-07-03T05:23:03.582Z,101452.95
2018-07-03T05:25:32.200Z,101460.99
2018-07-03T05:28:00.634Z,101465.09
2018-07-03T05:30:29.076Z,101455.02
2018-07-03T05:32:57.671Z,101464.59
2018-07-03T05:35:26.141Z,101469.67
2018-07-03T05:37:54.733Z,101468.91
2018-07-03T05:40:23.204Z,101470.47
2018-07-03T05:42:51.695Z,101471.61
2018-07-03T05:45:20.267Z,101461.09
2018-07-03T05:47:48.795Z,101467.09
2018-07-03T05:50:17.237Z,101470.43
2018-07-03T05:52:45.878Z,101466.37
2018-07-03T05:55:14.400Z,101471.62
2018-07-03T05:57:42.998Z,101470.02
2018-07-03T06:00:11.535Z,101469.95
2018-07-03T06:02:40.115Z,101468.18
2018-07-03T06:05:08.572Z,101469.52
2018-07-03T06:07:37.379Z,101472.88
2018-07-03T06:10:06.239Z,101469.30
2018-07-03T06:12:34.583Z,101469.65
2018-07-03T06:15:03.363Z,101469.02
2018-07-03T06:17:32.018Z,101469.83
2018-07-03T06:20:00.496Z,101469.30
2018-07-03T06:22:28.941Z,101467.82
2018-07-03T06:24:57.206Z,101469.02
2018-07-03T06:27:25.677Z,101464.70
2018-07-03T06:29:54.324Z,101464.02
2018-07-03T06:32:22.929Z,101463.57
2018-07-03T06:34:51.812Z,101466.80
2018-07-03T06:37:20.449Z,101465.77
2018-07-03T06:39:48.892Z,101470.39
2018-07-03T06:42:17.274Z,101464.44
2018-07-03T06:44:51.490Z,101467.55
2018-07-03T06:47:20.018Z,101472.78
2018-07-03T06:49:48.431Z,101468.05
2018-07-03T06:52:16.945Z,101467.59
2018-07-03T06:54:46.352Z,101463.77
2018-07-03T06:57:15.193Z,101467.86
2018-07-03T06:59:43.709Z,101472.97
2018-07-03T07:02:12.190Z,101472.50
2018-07-03T07:04:40.801Z,101466.62
2018-07-03T07:07:09.349Z,101464.56
2018-07-03T07:09:37.961Z,101461.22
2018-07-03T07:12:06.590Z,101459.69
2018-07-03T07:14:35.084Z,101455.25
2018-07-03T07:17:03.463Z,101457.67
2018-07-03T07:19:32.035Z,101458.05
2018-07-03T07:22:00.485Z,101444.38
2018-07-03T07:24:28.957Z,101446.55
2018-07-03T07:26:57.890Z,101449.95
2018-07-03T07:29:26.384Z,101449.59
2018-07-03T07:32:02.004Z,101449.67
2018-07-03T07:34:30.875Z,101454.55
2018-07-03T07:37:01.312Z,101444.96
2018-07-03T07:39:31.731Z,101444.83
2018-07-03T07:42:00.258Z,101440.60
2018-07-03T07:44:28.956Z,101439.91
2018-07-03T07:46:57.841Z,101438.91
2018-07-03T07:49:26.526Z,101442.34
2018-07-03T07:51:55.267Z,101436.80
2018-07-03T07:54:23.862Z,101442.79
2018-07-03T07:56:52.325Z,101438.70
2018-07-03T07:59:21.244Z,101439.41
2018-07-03T08:01:49.892Z,101432.66
2018-07-03T08:04:18.441Z,101433.05
2018-07-03T08:06:47.212Z,101431.53
2018-07-03T08:09:15.739Z,101434.48
2018-07-03T08:11:44.510Z,101431.18
2018-07-03T08:14:13.032Z,101429.61
2018-07-03T08:16:41.561Z,101426.83
2018-07-03T08:19:10.549Z,101419.67
2018-07-03T08:21:39.181Z,101422.69
2018-07-03T08:24:07.864Z,101424.05
2018-07-03T08:26:36.893Z,101427.09
2018-07-03T08:29:05.742Z,101424.76
2018-07-03T08:31:34.557Z,101428.14
2018-07-03T08:34:03.267Z,101423.87
2018-07-03T08:36:31.804Z,101426.66
2018-07-03T08:39:00.396Z,101422.34
2018-07-03T08:41:28.957Z,101427.59
2018-07-03T08:43:58.082Z,101419.09
2018-07-03T08:46:26.666Z,101419.77
2018-07-03T08:48:55.255Z,101418.91
2018-07-03T08:51:23.809Z,101419.01
2018-07-03T08:53:52.310Z,101422.11
2018-07-03T08:56:20.766Z,101419.53
2018-07-03T08:58:50.293Z,101417.94
2018-07-03T09:01:20.991Z,101421.23
2018-07-03T09:03:49.836Z,101423.47
2018-07-03T09:06:18.140Z,101424.88
2018-07-03T09:08:46.831Z,101420.77
2018-07-03T09:11:15.436Z,101415.22
2018-07-03T09:13:43.878Z,101422.05
2018-07-03T09:16:12.538Z,101421.58
2018-07-03T09:18:41.084Z,101417.95
2018-07-03T09:21:09.694Z,101422.04
2018-07-03T09:23:38.332Z,101419.13
2018-07-03T09:26:06.834Z,101414.36
2018-07-03T09:28:35.278Z,101414.66
2018-07-03T09:31:03.890Z,101416.20
2018-07-03T09:33:32.400Z,101412.28
2018-07-03T09:36:00.890Z,101414.76
2018-07-03T09:38:29.798Z,101403.59
2018-07-03T09:40:58.274Z,101410.05
2018-07-03T09:43:27.275Z,101399.91
2018-07-03T09:45:55.901Z,101397.34
2018-07-03T09:48:24.450Z,101393.05
2018-07-03T09:50:53.181Z,101398.21
2018-07-03T09:53:22.001Z,101398.85
2018-07-03T09:55:50.469Z,101400.45
2018-07-03T09:58:18.976Z,101392.70
2018-07-03T10:00:52.914Z,101390.80
2018-07-03T10:03:21.552Z,101392.67
2018-07-03T10:05:50.352Z,101393.01
2018-07-03T10:08:18.823Z,101392.23
2018-07-03T10:10:47.560Z,101387.64
2018-07-03T10:13:15.992Z,101390.69
2018-07-03T10:15:44.559Z,101384.14
2018-07-03T10:18:13.346Z,101386.88
2018-07-03T10:20:42.097Z,101385.92
2018-07-03T10:23:10.553Z,101387.52
2018-07-03T10:25:39.124Z,101388.05
2018-07-03T10:28:07.704Z,101389.83
2018-07-03T10:30:36.404Z,101391.23
2018-07-03T10:33:05.130Z,101390.16
2018-07-03T10:35:33.844Z,101385.66
2018-07-03T10:38:02.600Z,101380.41
2018-07-03T10:40:30.948Z,101376.72
2018-07-03T10:42:59.376Z,101378.12
2018-07-03T10:45:28.017Z,101371.91
2018-07-03T10:47:56.562Z,101378.53
2018-07-03T10:50:25.084Z,101378.34
2018-07-03T10:52:54.109Z,101374.48
2018-07-03T10:55:22.526Z,101374.89
2018-07-03T10:57:50.933Z,101373.53
2018-07-03T11:00:19.738Z,101375.11
2018-07-03T11:02:48.319Z,101373.30
2018-07-03T11:05:16.980Z,101374.95
2018-07-03T11:07:45.723Z,101369.85
2018-07-03T11:10:14.541Z,101369.11
2018-07-03T11:12:42.955Z,101363.66
2018-07-03T11:15:11.852Z,101367.50
2018-07-03T11:17:40.387Z,101366.88
2018-07-03T11:20:09.349Z,101362.20
2018-07-03T11:22:37.951Z,101366.92
2018-07-03T11:25:06.459Z,101366.97
2018-07-03T11:27:34.926Z,101361.35
2018-07-03T11:30:04.215Z,101358.36
2018-07-03T11:32:33.110Z,101355.66
2018-07-03T11:35:02.057Z,101361.91
2018-07-03T11:37:30.617Z,101346.68
2018-07-03T11:39:59.325Z,101343.80
2018-07-03T11:42:27.720Z,101347.23
2018-07-03T11:44:56.508Z,101343.69
2018-07-03T11:47:25.501Z,101343.80
2018-07-03T11:49:54.442Z,101342.62
2018-07-03T11:52:28.708Z,101338.69
2018-07-03T11:54:57.501Z,101343.30
2018-07-03T11:57:25.936Z,101335.44
2018-07-03T11:59:54.447Z,101340.44
2018-07-03T12:02:23.038Z,101326.19
2018-07-03T12:04:51.629Z,101330.15
2018-07-03T12:07:19.929Z,101323.23
2018-07-03T12:09:48.589Z,101323.23
2018-07-03T12:12:17.411Z,101326.20
2018-07-03T12:14:45.961Z,101326.80
2018-07-03T12:17:14.539Z,101318.39
2018-07-03T12:19:43.193Z,101316.03
2018-07-03T12:22:11.740Z,101314.70
2018-07-03T12:24:40.498Z,101318.27
2018-07-03T12:27:08.943Z,101311.95
2018-07-03T12:29:37.671Z,101310.77
2018-07-03T12:32:06.586Z,101313.14
2018-07-03T12:34:35.146Z,101307.89
2018-07-03T12:37:03.694Z,101304.32
2018-07-03T12:39:32.158Z,101306.52
2018-07-03T12:42:00.898Z,101297.91
2018-07-03T12:44:29.459Z,101302.44
2018-07-03T12:46:58.177Z,101304.20
2018-07-03T12:49:26.650Z,101298.91
2018-07-03T12:51:55.320Z,101301.86
2018-07-03T12:54:23.964Z,101304.97
2018-07-03T12:56:52.560Z,101306.16
2018-07-03T12:59:21.451Z,101290.31
2018-07-03T13:01:49.943Z,101292.07
2018-07-03T13:04:18.492Z,101293.44
2018-07-03T13:06:46.919Z,101290.46
2018-07-03T13:09:15.349Z,101281.97
2018-07-03T13:11:43.828Z,101284.04
2018-07-03T13:14:12.354Z,101278.64
2018-07-03T13:16:40.868Z,101286.25
2018-07-03T13:19:09.324Z,101282.60
2018-07-03T13:21:37.836Z,101282.97
2018-07-03T13:24:06.491Z,101272.75
2018-07-03T13:26:35.100Z,101276.30
2018-07-03T13:29:05.968Z,101275.22
2018-07-03T13:31:34.478Z,101267.89
2018-07-03T13:34:03.206Z,101269.89
2018-07-03T13:36:31.680Z,101267.32
2018-07-03T13:39:00.492Z,101262.59
2018-07-03T13:41:29.224Z,101256.61
2018-07-03T13:43:57.634Z,101252.98
2018-07-03T13:46:26.812Z,101257.92
2018-07-03T13:48:55.653Z,101253.73
2018-07-03T13:51:24.650Z,101247.63
2018-07-03T13:53:53.255Z,101253.97
2018-07-03T13:56:21.709Z,101252.88
2018-07-03T13:58:51.033Z,101250.09
2018-07-03T14:01:19.598Z,101243.44
2018-07-03T14:03:48.476Z,101249.16
2018-07-03T14:06:17.183Z,101251.08
2018-07-03T14:08:45.890Z,101248.07
2018-07-03T14:11:14.701Z,101244.80
2018-07-03T14:13:43.297Z,101238.80
2018-07-03T14:16:11.887Z,101236.47
2018-07-03T14:18:40.763Z,101239.19
2018-07-03T14:21:09.627Z,101237.52
2018-07-03T14:23:38.235Z,101227.14
2018-07-03T14:26:06.868Z,101222.76
2018-07-03T14:28:35.341Z,101215.81
2018-07-03T14:31:03.921Z,101225.27
2018-07-03T14:33:32.380Z,101223.20
2018-07-03T14:36:00.842Z,101214.62
2018-07-03T14:38:29.363Z,101216.09
2018-07-03T14:40:57.968Z,101215.98
2018-07-03T14:43:26.696Z,101216.21
2018-07-03T14:45:55.116Z,101215.77
2018-07-03T14:48:23.556Z,101212.34
2018-07-03T14:50:52.165Z,101212.83
2018-07-03T14:53:20.721Z,101212.16
2018-07-03T14:55:49.302Z,101204.57
2018-07-03T14:58:17.936Z,101200.25
2018-07-03T15:00:46.705Z,101199.98
2018-07-03T15:03:15.472Z,101202.94
2018-07-03T15:05:44.164Z,101200.72
2018-07-03T15:08:12.621Z,101198.41
2018-07-03T15:10:41.129Z,101192.64
2018-07-03T15:13:09.741Z,101194.45
2018-07-03T15:15:38.544Z,101189.06
2018-07-03T15:18:11.102Z,101188.61
2018-07-03T15:20:40.117Z,101182.13
2018-07-03T15:23:09.321Z,101181.86
2018-07-03T15:25:38.035Z,101179.13
2018-07-03T15:28:06.344Z,101178.88
2018-07-03T15:30:35.033Z,101177.13
2018-07-03T15:33:03.586Z,101181.48
2018-07-03T15:35:32.193Z,101178.69
2018-07-03T15:38:00.925Z,101171.34
2018-07-03T15:40:29.569Z,101173.48
2018-07-03T15:42:58.258Z,101177.89
2018-07-03T15:45:27.007Z,101176.46
2018-07-03T15:47:55.559Z,101163.98
2018-07-03T15:50:24.349Z,101166.50
2018-07-03T15:52:52.949Z,101164.95
2018-07-03T15:55:21.289Z,101159.41
2018-07-03T15:57:49.845Z,101151.81
2018-07-03T16:00:18.359Z,101160.47
2018-07-03T16:04:02.645Z,101155.77
2018-07-03T16:06:54.797Z,101154.77
2018-07-03T16:09:23.495Z,101159.16
2018-07-03T16:11:52.275Z,101148.06
2018-07-03T16:14:20.515Z,101152.73
2018-07-03T16:16:49.239Z,101150.45
2018-07-03T16:19:23.315Z,101149.47
2018-07-03T16:21:51.824Z,101149.30
2018-07-03T16:24:21.154Z,101144.36
2018-07-03T16:26:49.685Z,101148.53
2018-07-03T16:29:18.325Z,101153.59
2018-07-03T16:31:46.892Z,101148.80
2018-07-03T16:34:15.442Z,101143.40
2018-07-03T16:36:44.199Z,101147.83
2018-07-03T16:39:12.921Z,101147.48
2018-07-03T16:41:41.567Z,101144.48
2018-07-03T16:44:10.684Z,101140.16
2018-07-03T16:46:39.576Z,101144.13
2018-07-03T16:49:08.205Z,101144.52
2018-07-03T16:51:36.587Z,101144.52
2018-07-03T16:54:04.963Z,101143.94
2018-07-03T16:56:33.288Z,101140.61
2018-07-03T16:59:01.766Z,101143.53
2018-07-03T17:01:30.456Z,101143.61
2018-07-03T17:03:59.177Z,101136.94
2018-07-03T17:06:27.807Z,101136.11
2018-07-03T17:08:56.398Z,101136.92
2018-07-03T17:11:25.041Z,101132.69
2018-07-03T17:13:53.863Z,101134.47
2018-07-03T17:16:22.214Z,101131.55
2018-07-03T17:18:56.326Z,101126.84
2018-07-03T17:21:24.964Z,101128.47
2018-07-03T17:23:53.511Z,101127.70
2018-07-03T17:26:22.015Z,101121.23
2018-07-03T17:28:50.602Z,101122.22
2018-07-03T17:31:19.307Z,101121.61
2018-07-03T17:33:47.947Z,101114.58
2018-07-03T17:36:16.571Z,101118.17
2018-07-03T17:38:45.242Z,101119.11
2018-07-03T17:41:30.685Z,101124.56
2018-07-03T17:44:17.627Z,101116.72
2018-07-03T17:46:46.124Z,101114.43
2018-07-03T17:49:14.769Z,101120.33
2018-07-03T17:51:43.793Z,101119.52
2018-07-03T17:54:12.517Z,101114.83
2018-07-03T17:56:41.046Z,101122.36
2018-07-03T17:59:09.668Z,101116.46
2018-07-03T18:01:38.123Z,101120.20
2018-07-03T18:04:06.837Z,101112.77
2018-07-03T18:06:35.711Z,101117.34
2018-07-03T18:09:08.210Z,101112.84
2018-07-03T18:11:36.742Z,101117.36
2018-07-03T18:14:05.931Z,101118.72
2018-07-03T18:16:34.755Z,101112.42
2018-07-03T18:19:08.970Z,101116.55
2018-07-03T18:21:37.692Z,101113.80
2018-07-03T18:24:06.604Z,101117.56
2018-07-03T18:26:35.203Z,101116.16
2018-07-03T18:29:04.131Z,101122.49
2018-07-03T18:31:33.592Z,101118.55
2018-07-03T18:34:02.385Z,101123.66
2018-07-03T18:36:30.780Z,101124.05
2018-07-03T18:38:59.072Z,101128.34
2018-07-03T18:41:27.736Z,101136.80
2018-07-03T18:43:56.417Z,101135.64
2018-07-03T18:46:25.080Z,101136.01
2018-07-03T18:48:53.656Z,101140.91
2018-07-03T18:51:22.572Z,101135.03
2018-07-03T18:53:51.093Z,101142.86
2018-07-03T18:56:19.689Z,101136.19
2018-07-03T18:58:48.179Z,101142.47
2018-07-03T19:01:16.718Z,101144.81
2018-07-03T19:03:45.479Z,101145.23
2018-07-03T19:06:13.981Z,101145.59
2018-07-03T19:08:42.856Z,101151.30
2018-07-03T19:11:11.635Z,101148.92
2018-07-03T19:13:40.488Z,101149.74
2018-07-03T19:16:09.164Z,101147.19
2018-07-03T19:18:37.885Z,101155.59
2018-07-03T19:21:06.605Z,101150.89
2018-07-03T19:23:35.216Z,101156.55
2018-07-03T19:26:03.821Z,101164.58
2018-07-03T19:28:32.624Z,101162.22
2018-07-03T19:31:01.136Z,101158.89
2018-07-03T19:33:37.933Z,101160.44
2018-07-03T19:36:06.570Z,101165.13
2018-07-03T19:38:35.185Z,101159.83
2018-07-03T19:41:04.111Z,101162.38
2018-07-03T19:43:35.837Z,101160.58
2018-07-03T19:46:05.081Z,101162.10
2018-07-03T19:48:33.955Z,101157.02
2018-07-03T19:51:02.225Z,101164.25
2018-07-03T19:53:30.899Z,101164.94
2018-07-03T19:55:59.980Z,101167.80
2018-07-03T19:58:28.543Z,101174.30
2018-07-03T20:00:57.144Z,101177.19
2018-07-03T20:03:25.768Z,101177.19
2018-07-03T20:05:54.278Z,101175.18
2018-07-03T20:08:22.850Z,101183.38
2018-07-03T20:10:51.674Z,101178.02
2018-07-03T20:13:20.337Z,101187.16
2018-07-03T20:15:49.205Z,101182.75
2018-07-03T20:18:17.757Z,101184.28
2018-07-03T20:20:46.391Z,101191.55
2018-07-03T20:23:15.329Z,101184.68
2018-07-03T20:25:43.825Z,101187.36
2018-07-03T20:28:12.398Z,101186.65
2018-07-03T20:30:41.074Z,101191.92
2018-07-03T20:33:09.684Z,101186.78
2018-07-03T20:35:38.379Z,101187.92
2018-07-03T20:38:07.293Z,101182.75
2018-07-03T20:41:04.151Z,101189.92
2018-07-03T20:43:35.503Z,101186.09
2018-07-03T20:46:04.429Z,101179.63
2018-07-03T20:48:33.028Z,101183.13
2018-07-03T20:51:01.708Z,101187.38
2018-07-03T20:53:30.391Z,101186.48
2018-07-03T20:55:59.094Z,101188.52
2018-07-03T20:58:27.674Z,101188.11
2018-07-03T21:00:56.212Z,101186.89
2018-07-03T21:03:25.020Z,101193.38
2018-07-03T21:05:53.877Z,101204.03
2018-07-03T21:08:22.545Z,101202.59
2018-07-03T21:10:51.017Z,101199.79
2018-07-03T21:13:19.611Z,101191.45
2018-07-03T21:15:48.282Z,101193.53
2018-07-03T21:18:16.775Z,101198.23
2018-07-03T21:20:45.464Z,101198.75
2018-07-03T21:23:13.825Z,101217.20
2018-07-03T21:25:42.429Z,101205.03
2018-07-03T21:28:10.954Z,101211.04
2018-07-03T21:30:39.613Z,101208.30
2018-07-03T21:33:08.468Z,101208.65
2018-07-03T21:35:37.158Z,101209.34
2018-07-03T21:38:05.640Z,101202.67
2018-07-03T21:40:34.301Z,101201.96
2018-07-03T21:43:02.961Z,101199.37
2018-07-03T21:45:31.479Z,101210.66
2018-07-03T21:48:00.052Z,101207.83
2018-07-03T21:50:28.722Z,101204.53
2018-07-03T21:52:57.367Z,101203.49
2018-07-03T21:55:25.792Z,101210.05
2018-07-03T21:57:54.389Z,101207.33
2018-07-03T22:00:36.229Z,101217.53
2018-07-03T22:03:06.408Z,101215.80
2018-07-03T22:05:35.593Z,101218.16
2018-07-03T22:08:04.291Z,101222.10
2018-07-03T22:10:33.313Z,101221.56
2018-07-03T22:13:02.172Z,101221.20
2018-07-03T22:15:30.805Z,101228.48
2018-07-03T22:17:59.216Z,101231.16
2018-07-03T22:20:27.860Z,101235.95
2018-07-03T22:22:56.235Z,101234.05
2018-07-03T22:25:24.570Z,101235.20
2018-07-03T22:27:53.392Z,101235.95
2018-07-03T22:30:21.924Z,101234.19
2018-07-03T22:32:50.358Z,101233.13
2018-07-03T22:35:18.937Z,101226.55
2018-07-03T22:37:47.529Z,101229.77
2018-07-03T22:40:16.012Z,101234.42
2018-07-03T22:42:44.602Z,101233.66
2018-07-03T22:45:13.272Z,101228.38
2018-07-03T22:47:41.749Z,101235.67
2018-07-03T22:50:10.332Z,101232.97
2018-07-03T22:52:39.049Z,101237.52
2018-07-03T22:55:07.412Z,101232.88
2018-07-03T22:57:36.044Z,101228.96
2018-07-03T23:00:05.355Z,101230.58
2018-07-03T23:02:33.868Z,101230.72
2018-07-03T23:05:02.683Z,101238.74
2018-07-03T23:07:31.130Z,101236.59
2018-07-03T23:09:59.800Z,101236.80
2018-07-03T23:12:28.153Z,101236.58
2018-07-03T23:14:57.017Z,101236.53
2018-07-03T23:17:25.468Z,101242.88
2018-07-03T23:19:53.907Z,101238.43
2018-07-03T23:22:22.615Z,101231.59
2018-07-03T23:24:51.258Z,101230.99
2018-07-03T23:27:19.708Z,101230.43
2018-07-03T23:29:48.283Z,101231.00
2018-07-03T23:32:16.910Z,101228.12
2018-07-03T23:34:45.473Z,101233.20
2018-07-03T23:37:14.184Z,101226.41
2018-07-03T23:39:42.560Z,101233.69
2018-07-03T23:42:11.161Z,101236.36
2018-07-03T23:44:39.668Z,101238.28
2018-07-03T23:47:25.188Z,101233.05
2018-07-03T23:50:10.721Z,101232.56
2018-07-03T23:52:56.457Z,101230.52
2018-07-03T23:55:41.940Z,101233.36
2018-07-03T23:58:27.383Z,101235.92
